DLH1834 EDDM-LEMG
Flight info
| Callsign | DLH1834 |
|---|---|
| Flight time | 2h 40m |
| Altitude | 37000 |
| Route | TURBU7N TURBU Y107 TOBSO DCT BAKOR DCT GEKBA DCT VAMTU DCT KOLON DCT GANGU DCT PADKO DCT DIVKO DCT NILDU DCT NENDA N975 BCN M985 VIBAS |
| Aircraft | A20N/M-SDE2E3FGHIRWXY/LB1 |
Departure
| Time | 2026-05-04 06:40 |
|---|---|
| Airport | Munich Airport (EDDM) |
Arrival
| Time | 2026-05-04 09:20 |
|---|---|
| Airport | Málaga-Costa del Sol Airport (LEMG) |
| Time | Latitude | Longitude | Altitude | Speed | Heading |
|---|---|---|---|---|---|
| 2026-05-04 06:26 | 48.35782 | 11.79234 | 1467 ft | 0 kts | 263° |
| 2026-05-04 06:33 | 48.35762 | 11.79406 | 1463 ft | 0 kts | 356° |
| 2026-05-04 06:34 | 48.35774 | 11.79405 | 1459 ft | 10 kts | 356° |
| 2026-05-04 06:34 | 48.35890 | 11.79462 | 1459 ft | 24 kts | 40° |
| 2026-05-04 06:34 | 48.36077 | 11.79478 | 1464 ft | 31 kts | 353° |
| 2026-05-04 06:35 | 48.36222 | 11.79544 | 1461 ft | 19 kts | 89° |
| 2026-05-04 06:36 | 48.36409 | 11.81999 | 1466 ft | 29 kts | 84° |
| 2026-05-04 06:37 | 48.36497 | 11.82128 | 1462 ft | 13 kts | 340° |
| 2026-05-04 06:37 | 48.36506 | 11.82127 | 1464 ft | 0 kts | 1° |
| 2026-05-04 06:38 | 48.36507 | 11.82127 | 1464 ft | 1 kts | 1° |
| 2026-05-04 06:40 | 48.36454 | 11.79098 | 1467 ft | 169 kts | 263° |
| 2026-05-04 06:40 | 48.36310 | 11.77198 | 1673 ft | 194 kts | 263° |
| 2026-05-04 06:40 | 48.36151 | 11.75105 | 2111 ft | 210 kts | 263° |
| 2026-05-04 06:40 | 48.35820 | 11.72932 | 2641 ft | 220 kts | 241° |
| 2026-05-04 06:41 | 48.34763 | 11.71300 | 3354 ft | 220 kts | 207° |
| 2026-05-04 06:41 | 48.33278 | 11.70794 | 4074 ft | 223 kts | 181° |
| 2026-05-04 06:41 | 48.31713 | 11.70792 | 4836 ft | 226 kts | 180° |
| 2026-05-04 06:41 | 48.30134 | 11.70807 | 5660 ft | 228 kts | 179° |
| 2026-05-04 06:42 | 48.28564 | 11.71219 | 6436 ft | 232 kts | 160° |
| 2026-05-04 06:42 | 48.27135 | 11.72393 | 7088 ft | 238 kts | 144° |
| 2026-05-04 06:42 | 48.25750 | 11.73869 | 7552 ft | 258 kts | 145° |
| 2026-05-04 06:44 | 48.13440 | 11.83961 | 11941 ft | 324 kts | 162° |
| 2026-05-04 06:44 | 48.11226 | 11.85050 | 12176 ft | 344 kts | 163° |
| 2026-05-04 06:44 | 48.08841 | 11.85594 | 12756 ft | 350 kts | 181° |
| 2026-05-04 06:45 | 48.06399 | 11.85453 | 13467 ft | 353 kts | 183° |
| 2026-05-04 06:45 | 48.03930 | 11.85273 | 14149 ft | 357 kts | 183° |
| 2026-05-04 06:45 | 48.01440 | 11.85068 | 14820 ft | 360 kts | 184° |
| 2026-05-04 06:45 | 47.98921 | 11.84848 | 15472 ft | 364 kts | 184° |
| 2026-05-04 06:46 | 47.96381 | 11.84623 | 16099 ft | 367 kts | 184° |
| 2026-05-04 06:46 | 47.93818 | 11.84394 | 16717 ft | 371 kts | 184° |
| 2026-05-04 06:46 | 47.91229 | 11.84163 | 17316 ft | 374 kts | 184° |
| 2026-05-04 06:46 | 47.88620 | 11.83930 | 17907 ft | 377 kts | 184° |
| 2026-05-04 06:48 | 47.69726 | 11.82258 | 21578 ft | 402 kts | 184° |
| 2026-05-04 06:48 | 47.66886 | 11.82008 | 22107 ft | 404 kts | 184° |
| 2026-05-04 06:49 | 47.65021 | 11.81843 | 22439 ft | 406 kts | 184° |
| 2026-05-04 06:50 | 47.46204 | 11.80191 | 25207 ft | 428 kts | 184° |
| 2026-05-04 06:51 | 47.43201 | 11.79929 | 25410 ft | 434 kts | 184° |
| 2026-05-04 06:51 | 47.40208 | 11.79668 | 26103 ft | 428 kts | 184° |
| 2026-05-04 06:51 | 47.37228 | 11.79408 | 26507 ft | 431 kts | 184° |
| 2026-05-04 06:51 | 47.34209 | 11.79146 | 26622 ft | 439 kts | 184° |
| 2026-05-04 06:52 | 47.31146 | 11.78880 | 26917 ft | 443 kts | 184° |
| 2026-05-04 06:52 | 47.28074 | 11.78614 | 27387 ft | 441 kts | 184° |
| 2026-05-04 06:52 | 47.24996 | 11.78347 | 27633 ft | 446 kts | 184° |
| 2026-05-04 06:52 | 47.21884 | 11.78078 | 27845 ft | 450 kts | 184° |
| 2026-05-04 06:53 | 47.18786 | 11.77810 | 28050 ft | 453 kts | 184° |
| 2026-05-04 06:53 | 47.15638 | 11.77538 | 28438 ft | 451 kts | 184° |
| 2026-05-04 06:53 | 47.12515 | 11.77268 | 28860 ft | 451 kts | 184° |
| 2026-05-04 06:53 | 47.09364 | 11.76997 | 28953 ft | 456 kts | 184° |
| 2026-05-04 06:54 | 47.06209 | 11.76725 | 29382 ft | 454 kts | 184° |
| 2026-05-04 06:54 | 47.03042 | 11.76453 | 29553 ft | 457 kts | 184° |
| 2026-05-04 06:54 | 46.96608 | 11.75901 | 29707 ft | 467 kts | 184° |
| 2026-05-04 06:55 | 46.93359 | 11.75623 | 29983 ft | 467 kts | 184° |
| 2026-05-04 06:55 | 46.90119 | 11.75346 | 30325 ft | 466 kts | 184° |
| 2026-05-04 06:55 | 46.86863 | 11.75068 | 30502 ft | 469 kts | 184° |
| 2026-05-04 06:55 | 46.83605 | 11.74790 | 30826 ft | 468 kts | 184° |
| 2026-05-04 06:56 | 46.80591 | 11.74533 | 31289 ft | 464 kts | 184° |
| 2026-05-04 06:57 | 46.58578 | 11.68120 | 32774 ft | 474 kts | 220° |
| 2026-05-04 06:58 | 46.56256 | 11.64703 | 32858 ft | 477 kts | 231° |
| 2026-05-04 06:58 | 46.54181 | 11.60909 | 32879 ft | 481 kts | 232° |
| 2026-05-04 06:58 | 46.52109 | 11.57090 | 33064 ft | 481 kts | 232° |
| 2026-05-04 06:58 | 46.50023 | 11.53270 | 33165 ft | 482 kts | 231° |
| 2026-05-04 06:59 | 46.47939 | 11.49484 | 33505 ft | 477 kts | 231° |
| 2026-05-04 06:59 | 46.45867 | 11.45744 | 33745 ft | 474 kts | 231° |
| 2026-05-04 06:59 | 46.43826 | 11.42074 | 33995 ft | 473 kts | 231° |
| 2026-05-04 06:59 | 46.41762 | 11.38372 | 34243 ft | 472 kts | 231° |
| 2026-05-04 07:01 | 46.27489 | 11.12913 | 35980 ft | 458 kts | 231° |
| 2026-05-04 07:01 | 46.25481 | 11.09351 | 36218 ft | 456 kts | 231° |
| 2026-05-04 07:02 | 46.23498 | 11.05837 | 36362 ft | 457 kts | 231° |
| 2026-05-04 07:02 | 46.21485 | 11.02274 | 36485 ft | 458 kts | 231° |
| 2026-05-04 07:02 | 46.19478 | 10.98726 | 36606 ft | 458 kts | 231° |
| 2026-05-04 07:02 | 46.17448 | 10.95142 | 36725 ft | 458 kts | 231° |
| 2026-05-04 07:03 | 46.15423 | 10.91571 | 36853 ft | 458 kts | 231° |
| 2026-05-04 07:03 | 46.13406 | 10.88019 | 36945 ft | 458 kts | 231° |
| 2026-05-04 07:03 | 46.09352 | 10.80894 | 37001 ft | 457 kts | 231° |
| 2026-05-04 07:04 | 46.05363 | 10.73902 | 36999 ft | 454 kts | 231° |
| 2026-05-04 07:04 | 46.01343 | 10.66873 | 37001 ft | 455 kts | 231° |
| 2026-05-04 07:05 | 45.97289 | 10.59800 | 37000 ft | 461 kts | 231° |
| 2026-05-04 07:05 | 45.93166 | 10.52628 | 36999 ft | 468 kts | 230° |
| 2026-05-04 07:06 | 45.86925 | 10.41805 | 36999 ft | 474 kts | 230° |
| 2026-05-04 07:07 | 45.82700 | 10.34503 | 37002 ft | 476 kts | 230° |
| 2026-05-04 07:08 | 45.68077 | 10.09373 | 37000 ft | 465 kts | 230° |
| 2026-05-04 07:09 | 45.66001 | 10.05825 | 37000 ft | 464 kts | 230° |
| 2026-05-04 07:09 | 45.61846 | 9.98734 | 37000 ft | 465 kts | 230° |
| 2026-05-04 07:10 | 45.57683 | 9.91648 | 37000 ft | 465 kts | 230° |
| 2026-05-04 07:12 | 45.41030 | 9.63483 | 37000 ft | 464 kts | 230° |
| 2026-05-04 07:12 | 45.36856 | 9.56468 | 37000 ft | 464 kts | 230° |
| 2026-05-04 07:13 | 45.32678 | 9.49463 | 37000 ft | 464 kts | 230° |
| 2026-05-04 07:13 | 45.28518 | 9.42505 | 37000 ft | 464 kts | 230° |
| 2026-05-04 07:14 | 45.18058 | 9.25088 | 36998 ft | 453 kts | 230° |
| 2026-05-04 07:15 | 45.14030 | 9.18411 | 37001 ft | 444 kts | 230° |
| 2026-05-04 07:15 | 45.10012 | 9.11764 | 37000 ft | 448 kts | 230° |
| 2026-05-04 07:16 | 45.05954 | 9.05068 | 37000 ft | 447 kts | 229° |
| 2026-05-04 07:16 | 45.01896 | 8.98386 | 37000 ft | 447 kts | 229° |
| 2026-05-04 07:17 | 44.97833 | 8.91714 | 37000 ft | 447 kts | 229° |
| 2026-05-04 07:17 | 44.93763 | 8.85047 | 37000 ft | 447 kts | 229° |
| 2026-05-04 07:18 | 44.89694 | 8.78395 | 36999 ft | 448 kts | 229° |
| 2026-05-04 07:18 | 44.85625 | 8.71759 | 36999 ft | 447 kts | 229° |
| 2026-05-04 07:19 | 44.81568 | 8.65159 | 36999 ft | 448 kts | 229° |
| 2026-05-04 07:19 | 44.77483 | 8.58528 | 36999 ft | 448 kts | 229° |
| 2026-05-04 07:20 | 44.73396 | 8.51912 | 36999 ft | 448 kts | 229° |
| 2026-05-04 07:20 | 44.69330 | 8.45342 | 36995 ft | 448 kts | 229° |
| 2026-05-04 07:22 | 44.52937 | 8.19015 | 36989 ft | 448 kts | 229° |
| 2026-05-04 07:23 | 44.48821 | 8.12441 | 36982 ft | 448 kts | 229° |
| 2026-05-04 07:23 | 44.44697 | 8.05872 | 36984 ft | 449 kts | 229° |
| 2026-05-04 07:24 | 44.40577 | 7.99324 | 36990 ft | 449 kts | 229° |
| 2026-05-04 07:24 | 44.36424 | 7.92738 | 36999 ft | 450 kts | 229° |
| 2026-05-04 07:26 | 44.18768 | 7.67727 | 36999 ft | 460 kts | 221° |
| 2026-05-04 07:27 | 44.14052 | 7.61698 | 37000 ft | 461 kts | 227° |
| 2026-05-04 07:27 | 44.09856 | 7.55028 | 36997 ft | 454 kts | 229° |
| 2026-05-04 07:28 | 44.05694 | 7.48350 | 37000 ft | 458 kts | 229° |
| 2026-05-04 07:28 | 44.01515 | 7.41681 | 36999 ft | 459 kts | 229° |
| 2026-05-04 07:29 | 43.97342 | 7.35041 | 37000 ft | 454 kts | 229° |
| 2026-05-04 07:29 | 43.93194 | 7.28456 | 36998 ft | 450 kts | 229° |
| 2026-05-04 07:30 | 43.89065 | 7.21916 | 37000 ft | 452 kts | 229° |
| 2026-05-04 07:30 | 43.84946 | 7.15404 | 37001 ft | 450 kts | 229° |
| 2026-05-04 07:31 | 43.80817 | 7.08893 | 37001 ft | 452 kts | 229° |
| 2026-05-04 07:33 | 43.68744 | 6.83665 | 36999 ft | 452 kts | 248° |
| 2026-05-04 07:33 | 43.67576 | 6.79652 | 37001 ft | 450 kts | 248° |
| 2026-05-04 07:33 | 43.65221 | 6.71655 | 37001 ft | 449 kts | 248° |
| 2026-05-04 07:34 | 43.62852 | 6.63661 | 37000 ft | 449 kts | 248° |
| 2026-05-04 07:34 | 43.60475 | 6.55668 | 37001 ft | 451 kts | 248° |
| 2026-05-04 07:35 | 43.58094 | 6.47684 | 37000 ft | 450 kts | 248° |
| 2026-05-04 07:35 | 43.55708 | 6.39709 | 36999 ft | 448 kts | 248° |
| 2026-05-04 07:36 | 43.53338 | 6.31812 | 37000 ft | 449 kts | 248° |
| 2026-05-04 07:38 | 43.44176 | 6.01503 | 36997 ft | 447 kts | 247° |
| 2026-05-04 07:38 | 43.41775 | 5.93621 | 37000 ft | 449 kts | 247° |
| 2026-05-04 07:39 | 43.39358 | 5.85706 | 37000 ft | 449 kts | 247° |
| 2026-05-04 07:39 | 43.36937 | 5.77806 | 37000 ft | 449 kts | 247° |
| 2026-05-04 07:40 | 43.34499 | 5.69873 | 36999 ft | 450 kts | 247° |
| 2026-05-04 07:40 | 43.32067 | 5.61984 | 37008 ft | 451 kts | 247° |
| 2026-05-04 07:41 | 43.29630 | 5.54104 | 37000 ft | 446 kts | 247° |
| 2026-05-04 07:41 | 43.27193 | 5.46246 | 37000 ft | 448 kts | 247° |
| 2026-05-04 07:42 | 43.24746 | 5.38382 | 37000 ft | 446 kts | 247° |
| 2026-05-04 07:42 | 43.22300 | 5.30540 | 37000 ft | 446 kts | 247° |
| 2026-05-04 07:43 | 43.19850 | 5.22714 | 37001 ft | 447 kts | 247° |
| 2026-05-04 07:43 | 43.17411 | 5.14946 | 37002 ft | 447 kts | 247° |
| 2026-05-04 07:44 | 43.14949 | 5.07126 | 37002 ft | 447 kts | 246° |
| 2026-05-04 07:44 | 43.12484 | 4.99319 | 37003 ft | 447 kts | 246° |
| 2026-05-04 07:45 | 43.10011 | 4.91514 | 37002 ft | 447 kts | 246° |
| 2026-05-04 07:45 | 43.07509 | 4.83728 | 37001 ft | 447 kts | 243° |
| 2026-05-04 07:46 | 43.04158 | 4.76577 | 36999 ft | 447 kts | 230° |
| 2026-05-04 07:46 | 42.99780 | 4.70620 | 36997 ft | 447 kts | 221° |
| 2026-05-04 07:47 | 42.95117 | 4.65007 | 36998 ft | 447 kts | 221° |
| 2026-05-04 07:49 | 42.76487 | 4.42599 | 37001 ft | 447 kts | 221° |
| 2026-05-04 07:49 | 42.71803 | 4.36998 | 37002 ft | 447 kts | 221° |
| 2026-05-04 07:50 | 42.67119 | 4.31409 | 37003 ft | 447 kts | 221° |
| 2026-05-04 07:50 | 42.62434 | 4.25830 | 37003 ft | 447 kts | 221° |
| 2026-05-04 07:51 | 42.57750 | 4.20263 | 37004 ft | 447 kts | 221° |
| 2026-05-04 07:51 | 42.53089 | 4.14735 | 37004 ft | 447 kts | 221° |
| 2026-05-04 07:52 | 42.48397 | 4.09183 | 37003 ft | 447 kts | 221° |
| 2026-05-04 07:52 | 42.43705 | 4.03641 | 37003 ft | 447 kts | 221° |
| 2026-05-04 07:54 | 42.25223 | 3.81176 | 36999 ft | 447 kts | 231° |
| 2026-05-04 07:55 | 42.21558 | 3.74402 | 36998 ft | 446 kts | 235° |
| 2026-05-04 07:55 | 42.17966 | 3.67555 | 36997 ft | 446 kts | 234° |
| 2026-05-04 07:56 | 42.14385 | 3.60776 | 36998 ft | 446 kts | 234° |
| 2026-05-04 07:56 | 42.10773 | 3.53955 | 36998 ft | 446 kts | 234° |
| 2026-05-04 07:57 | 42.07164 | 3.47157 | 36999 ft | 446 kts | 234° |
| 2026-05-04 07:57 | 42.03547 | 3.40357 | 36999 ft | 447 kts | 234° |
| 2026-05-04 07:58 | 41.99923 | 3.33560 | 37000 ft | 447 kts | 234° |
| 2026-05-04 07:58 | 41.96298 | 3.26775 | 37001 ft | 447 kts | 234° |
| 2026-05-04 07:59 | 41.92665 | 3.19991 | 36998 ft | 447 kts | 234° |
| 2026-05-04 07:59 | 41.89050 | 3.13256 | 37001 ft | 447 kts | 234° |
| 2026-05-04 08:00 | 41.85404 | 3.06477 | 37002 ft | 447 kts | 234° |
| 2026-05-04 08:02 | 41.70806 | 2.79490 | 37002 ft | 448 kts | 234° |
| 2026-05-04 08:02 | 41.67125 | 2.72762 | 37004 ft | 448 kts | 233° |
| 2026-05-04 08:03 | 41.63284 | 2.66189 | 37004 ft | 448 kts | 232° |
| 2026-05-04 08:03 | 41.59434 | 2.59641 | 37007 ft | 448 kts | 232° |
| 2026-05-04 08:04 | 41.55593 | 2.53075 | 37010 ft | 448 kts | 232° |
| 2026-05-04 08:04 | 41.51782 | 2.46559 | 37009 ft | 448 kts | 232° |
| 2026-05-04 08:05 | 41.47944 | 2.40010 | 37008 ft | 448 kts | 232° |
| 2026-05-04 08:05 | 41.44102 | 2.33469 | 37007 ft | 448 kts | 232° |
| 2026-05-04 08:06 | 41.40253 | 2.26932 | 37005 ft | 447 kts | 232° |
| 2026-05-04 08:06 | 41.36427 | 2.20447 | 37003 ft | 447 kts | 232° |
| 2026-05-04 08:08 | 41.20769 | 1.94822 | 36997 ft | 446 kts | 231° |
| 2026-05-04 08:11 | 41.02948 | 1.66292 | 36996 ft | 446 kts | 230° |
| 2026-05-04 08:11 | 40.96979 | 1.56802 | 36997 ft | 446 kts | 230° |
| 2026-05-04 08:12 | 40.93021 | 1.50526 | 36998 ft | 446 kts | 230° |
| 2026-05-04 08:12 | 40.89040 | 1.44226 | 36999 ft | 447 kts | 230° |
| 2026-05-04 08:13 | 40.85041 | 1.37911 | 37000 ft | 447 kts | 230° |
| 2026-05-04 08:13 | 40.81069 | 1.31651 | 37001 ft | 447 kts | 230° |
| 2026-05-04 08:14 | 40.77069 | 1.25360 | 37002 ft | 447 kts | 230° |
| 2026-05-04 08:16 | 40.61049 | 1.00295 | 37004 ft | 447 kts | 230° |
| 2026-05-04 08:16 | 40.57026 | 0.94032 | 37004 ft | 447 kts | 230° |
| 2026-05-04 08:17 | 40.53006 | 0.87787 | 37004 ft | 447 kts | 230° |
| 2026-05-04 08:17 | 40.48984 | 0.81551 | 37003 ft | 447 kts | 230° |
| 2026-05-04 08:19 | 40.32884 | 0.56715 | 37001 ft | 447 kts | 230° |
| 2026-05-04 08:20 | 40.28849 | 0.50522 | 37000 ft | 447 kts | 230° |
| 2026-05-04 08:20 | 40.24811 | 0.44338 | 36999 ft | 447 kts | 230° |
| 2026-05-04 08:21 | 40.20785 | 0.38183 | 36999 ft | 447 kts | 230° |
| 2026-05-04 08:21 | 40.16736 | 0.32006 | 36999 ft | 447 kts | 229° |
| 2026-05-04 08:22 | 40.12703 | 0.25865 | 36998 ft | 447 kts | 229° |
| 2026-05-04 08:24 | 39.96492 | 0.01306 | 36999 ft | 447 kts | 229° |
| 2026-05-04 08:24 | 39.92421 | -0.04830 | 37001 ft | 447 kts | 229° |
| 2026-05-04 08:25 | 39.88345 | -0.10963 | 37001 ft | 447 kts | 229° |
| 2026-05-04 08:25 | 39.84271 | -0.17081 | 37003 ft | 447 kts | 229° |
| 2026-05-04 08:27 | 39.67952 | -0.41463 | 36983 ft | 448 kts | 229° |
| 2026-05-04 08:28 | 39.64550 | -0.46522 | 36995 ft | 447 kts | 229° |
| 2026-05-04 08:28 | 39.60446 | -0.52614 | 37000 ft | 448 kts | 229° |
| 2026-05-04 08:29 | 39.56337 | -0.58701 | 37004 ft | 448 kts | 229° |
| 2026-05-04 08:31 | 39.39895 | -0.82942 | 36987 ft | 449 kts | 229° |
| 2026-05-04 08:33 | 39.23328 | -1.07176 | 37000 ft | 449 kts | 229° |
| 2026-05-04 08:35 | 39.06649 | -1.31386 | 36999 ft | 455 kts | 229° |
| 2026-05-04 08:35 | 39.02447 | -1.37457 | 37000 ft | 453 kts | 228° |
| 2026-05-04 08:37 | 38.87763 | -1.58576 | 37001 ft | 453 kts | 228° |
| 2026-05-04 08:38 | 38.83555 | -1.64603 | 37006 ft | 453 kts | 228° |
| 2026-05-04 08:38 | 38.79342 | -1.70624 | 36993 ft | 452 kts | 228° |
| 2026-05-04 08:40 | 38.62414 | -1.88286 | 34221 ft | 450 kts | 216° |
| 2026-05-04 08:40 | 38.59862 | -1.90627 | 33447 ft | 452 kts | 216° |
| 2026-05-04 08:40 | 38.57443 | -1.93191 | 32678 ft | 453 kts | 226° |
| 2026-05-04 08:41 | 38.55430 | -1.96218 | 31909 ft | 454 kts | 231° |
| 2026-05-04 08:41 | 38.53436 | -1.99363 | 31162 ft | 454 kts | 231° |
| 2026-05-04 08:41 | 38.51443 | -2.02504 | 30427 ft | 454 kts | 231° |
| 2026-05-04 08:41 | 38.49440 | -2.05658 | 30126 ft | 463 kts | 231° |
| 2026-05-04 08:42 | 38.47387 | -2.08888 | 30018 ft | 474 kts | 231° |
| 2026-05-04 08:42 | 38.43210 | -2.15448 | 30000 ft | 475 kts | 231° |
| 2026-05-04 08:43 | 38.39043 | -2.21978 | 30000 ft | 474 kts | 231° |
| 2026-05-04 08:43 | 38.34864 | -2.28513 | 30001 ft | 475 kts | 231° |
| 2026-05-04 08:44 | 38.30706 | -2.35005 | 30000 ft | 475 kts | 231° |
| 2026-05-04 08:46 | 38.13882 | -2.61133 | 30002 ft | 480 kts | 231° |
| 2026-05-04 08:46 | 38.09635 | -2.67697 | 29928 ft | 477 kts | 231° |
| 2026-05-04 08:46 | 38.07553 | -2.70909 | 29746 ft | 463 kts | 231° |
| 2026-05-04 08:47 | 38.05536 | -2.74018 | 29559 ft | 451 kts | 231° |
| 2026-05-04 08:47 | 38.03539 | -2.77093 | 29397 ft | 453 kts | 231° |
| 2026-05-04 08:47 | 38.01532 | -2.80180 | 29222 ft | 453 kts | 231° |
| 2026-05-04 08:47 | 37.99527 | -2.83263 | 29044 ft | 452 kts | 231° |
| 2026-05-04 08:48 | 37.97532 | -2.86325 | 28870 ft | 448 kts | 231° |
| 2026-05-04 08:48 | 37.95541 | -2.89357 | 28698 ft | 448 kts | 229° |
| 2026-05-04 08:48 | 37.93397 | -2.92234 | 28513 ft | 449 kts | 226° |
| 2026-05-04 08:48 | 37.91241 | -2.95071 | 28345 ft | 445 kts | 226° |
| 2026-05-04 08:49 | 37.89097 | -2.97905 | 28170 ft | 447 kts | 226° |
| 2026-05-04 08:50 | 37.76391 | -3.14644 | 27120 ft | 433 kts | 226° |
| 2026-05-04 08:50 | 37.74301 | -3.17387 | 26946 ft | 433 kts | 226° |
| 2026-05-04 08:51 | 37.72209 | -3.20130 | 26770 ft | 434 kts | 226° |
| 2026-05-04 08:51 | 37.70114 | -3.22875 | 26595 ft | 433 kts | 226° |
| 2026-05-04 08:51 | 37.68027 | -3.25609 | 26409 ft | 432 kts | 226° |
| 2026-05-04 08:51 | 37.65940 | -3.28339 | 26244 ft | 431 kts | 226° |
| 2026-05-04 08:52 | 37.63906 | -3.30996 | 26073 ft | 430 kts | 226° |
| 2026-05-04 08:52 | 37.61780 | -3.33773 | 25885 ft | 429 kts | 226° |
| 2026-05-04 08:52 | 37.59735 | -3.36441 | 25712 ft | 428 kts | 226° |
| 2026-05-04 08:52 | 37.57667 | -3.39137 | 25352 ft | 427 kts | 226° |
| 2026-05-04 08:53 | 37.55604 | -3.41825 | 24903 ft | 424 kts | 226° |
| 2026-05-04 08:54 | 37.41639 | -3.59941 | 21754 ft | 402 kts | 224° |
| 2026-05-04 08:55 | 37.39444 | -3.62096 | 21304 ft | 401 kts | 211° |
| 2026-05-04 08:55 | 37.36937 | -3.63587 | 20856 ft | 396 kts | 199° |
| 2026-05-04 08:55 | 37.34277 | -3.64408 | 20407 ft | 392 kts | 192° |
| 2026-05-04 08:55 | 37.31603 | -3.65095 | 19957 ft | 391 kts | 192° |
| 2026-05-04 08:57 | 37.13467 | -3.69867 | 16807 ft | 372 kts | 193° |
| 2026-05-04 09:01 | 36.80415 | -3.81316 | 8984 ft | 322 kts | 195° |
| 2026-05-04 09:01 | 36.78272 | -3.82056 | 8485 ft | 314 kts | 195° |
| 2026-05-04 09:01 | 36.76186 | -3.82776 | 7994 ft | 307 kts | 195° |
| 2026-05-04 09:01 | 36.74192 | -3.83464 | 7661 ft | 295 kts | 196° |
| 2026-05-04 09:02 | 36.72262 | -3.84131 | 7379 ft | 281 kts | 196° |
| 2026-05-04 09:02 | 36.70411 | -3.84769 | 7102 ft | 273 kts | 196° |
| 2026-05-04 09:02 | 36.68617 | -3.85389 | 6822 ft | 262 kts | 196° |
| 2026-05-04 09:02 | 36.66895 | -3.85982 | 6552 ft | 252 kts | 196° |
| 2026-05-04 09:03 | 36.65213 | -3.86562 | 6276 ft | 249 kts | 196° |
| 2026-05-04 09:03 | 36.63554 | -3.87134 | 5997 ft | 246 kts | 196° |
| 2026-05-04 09:03 | 36.61915 | -3.87698 | 5720 ft | 243 kts | 196° |
| 2026-05-04 09:03 | 36.60296 | -3.88256 | 5446 ft | 240 kts | 196° |
| 2026-05-04 09:04 | 36.58695 | -3.88807 | 5168 ft | 238 kts | 196° |
| 2026-05-04 09:04 | 36.57262 | -3.89300 | 5013 ft | 231 kts | 196° |
| 2026-05-04 09:04 | 36.55829 | -3.89792 | 4981 ft | 237 kts | 196° |
| 2026-05-04 09:04 | 36.54247 | -3.90336 | 4979 ft | 235 kts | 196° |
| 2026-05-04 09:05 | 36.52667 | -3.90879 | 4979 ft | 235 kts | 196° |
| 2026-05-04 09:05 | 36.51107 | -3.91414 | 4979 ft | 236 kts | 196° |
| 2026-05-04 09:05 | 36.49526 | -3.91956 | 4979 ft | 235 kts | 196° |
| 2026-05-04 09:05 | 36.47946 | -3.92498 | 4979 ft | 235 kts | 196° |
| 2026-05-04 09:06 | 36.46367 | -3.93040 | 4979 ft | 235 kts | 196° |
| 2026-05-04 09:07 | 36.36288 | -3.98916 | 4341 ft | 232 kts | 223° |
| 2026-05-04 09:08 | 36.35093 | -4.00255 | 4219 ft | 231 kts | 225° |
| 2026-05-04 09:08 | 36.34277 | -4.01934 | 4089 ft | 230 kts | 257° |
| 2026-05-04 09:08 | 36.34308 | -4.03891 | 3962 ft | 230 kts | 289° |
| 2026-05-04 09:08 | 36.35146 | -4.05563 | 3850 ft | 230 kts | 312° |
| 2026-05-04 09:09 | 36.36272 | -4.06966 | 3749 ft | 226 kts | 316° |
| 2026-05-04 09:09 | 36.37385 | -4.08276 | 3656 ft | 215 kts | 316° |
| 2026-05-04 09:09 | 36.38428 | -4.09535 | 3540 ft | 205 kts | 316° |
| 2026-05-04 09:09 | 36.39418 | -4.10754 | 3493 ft | 196 kts | 314° |
| 2026-05-04 09:10 | 36.40310 | -4.11934 | 3470 ft | 178 kts | 312° |
| 2026-05-04 09:10 | 36.41094 | -4.13017 | 3470 ft | 160 kts | 311° |
| 2026-05-04 09:10 | 36.41803 | -4.14006 | 3353 ft | 154 kts | 311° |
| 2026-05-04 09:10 | 36.42526 | -4.15015 | 3253 ft | 156 kts | 311° |
| 2026-05-04 09:11 | 36.43241 | -4.16012 | 3277 ft | 156 kts | 311° |
| 2026-05-04 09:11 | 36.43961 | -4.17018 | 3278 ft | 156 kts | 311° |
| 2026-05-04 09:11 | 36.44682 | -4.18021 | 3279 ft | 156 kts | 311° |
| 2026-05-04 09:11 | 36.45403 | -4.19026 | 3280 ft | 156 kts | 311° |
| 2026-05-04 09:12 | 36.46124 | -4.20032 | 3279 ft | 156 kts | 311° |
| 2026-05-04 09:12 | 36.46845 | -4.21039 | 3280 ft | 156 kts | 311° |
| 2026-05-04 09:14 | 36.51504 | -4.27543 | 3281 ft | 141 kts | 311° |
| 2026-05-04 09:14 | 36.52157 | -4.28455 | 3278 ft | 141 kts | 311° |
| 2026-05-04 09:14 | 36.52811 | -4.29369 | 3281 ft | 141 kts | 311° |
| 2026-05-04 09:14 | 36.53465 | -4.30282 | 3281 ft | 141 kts | 311° |
| 2026-05-04 09:15 | 36.54116 | -4.31191 | 3282 ft | 141 kts | 311° |
| 2026-05-04 09:15 | 36.54768 | -4.32103 | 3281 ft | 141 kts | 311° |
| 2026-05-04 09:15 | 36.55424 | -4.33020 | 3234 ft | 142 kts | 311° |
| 2026-05-04 09:15 | 36.56079 | -4.33936 | 3077 ft | 141 kts | 311° |
| 2026-05-04 09:17 | 36.61011 | -4.40839 | 1677 ft | 138 kts | 311° |
| 2026-05-04 09:18 | 36.61853 | -4.42018 | 1435 ft | 137 kts | 311° |
| 2026-05-04 09:18 | 36.62485 | -4.42903 | 1253 ft | 137 kts | 311° |
| 2026-05-04 09:18 | 36.63116 | -4.43787 | 1073 ft | 136 kts | 311° |
| 2026-05-04 09:18 | 36.63746 | -4.44669 | 890 ft | 136 kts | 311° |
| 2026-05-04 09:19 | 36.64164 | -4.45255 | 770 ft | 136 kts | 311° |
| 2026-05-04 09:19 | 36.64789 | -4.46131 | 590 ft | 136 kts | 311° |
| 2026-05-04 09:19 | 36.65414 | -4.47008 | 410 ft | 135 kts | 311° |
| 2026-05-04 09:19 | 36.66038 | -4.47882 | 228 ft | 135 kts | 311° |
| 2026-05-04 09:20 | 36.66663 | -4.48761 | 49 ft | 134 kts | 311° |
| 2026-05-04 09:20 | 36.67155 | -4.49456 | 48 ft | 67 kts | 311° |
| 2026-05-04 09:20 | 36.67355 | -4.49609 | 49 ft | 18 kts | 355° |
| 2026-05-04 09:20 | 36.67392 | -4.49631 | 49 ft | 0 kts | 334° |
| 2026-05-04 09:22 | 36.67393 | -4.49632 | 49 ft | 0 kts | 334° |
| 2026-05-04 09:23 | 36.67426 | -4.49648 | 48 ft | 13 kts | 341° |
| 2026-05-04 09:23 | 36.67522 | -4.49681 | 49 ft | 14 kts | 353° |
| 2026-05-04 09:23 | 36.67570 | -4.49656 | 48 ft | 0 kts | 45° |
| 2026-05-04 09:23 | 36.67582 | -4.49633 | 48 ft | 7 kts | 70° |